createdAt,value
2018-07-02T00:00:52.557Z,12.80
2018-07-02T00:03:20.673Z,12.80
2018-07-02T00:06:00.488Z,12.80
2018-07-02T00:08:28.624Z,12.70
2018-07-02T00:10:57.378Z,12.70
2018-07-02T00:13:25.476Z,12.70
2018-07-02T00:15:53.657Z,12.60
2018-07-02T00:18:21.752Z,12.60
2018-07-02T00:20:49.946Z,12.50
2018-07-02T00:23:18.065Z,12.40
2018-07-02T00:25:46.175Z,12.40
2018-07-02T00:28:14.255Z,12.40
2018-07-02T00:30:42.391Z,12.30
2018-07-02T00:33:10.563Z,12.30
2018-07-02T00:35:38.634Z,12.30
2018-07-02T00:38:06.742Z,12.30
2018-07-02T00:40:34.930Z,12.30
2018-07-02T00:43:03.042Z,12.20
2018-07-02T00:45:31.148Z,12.20
2018-07-02T00:47:59.273Z,12.10
2018-07-02T00:50:27.411Z,12.10
2018-07-02T00:52:55.548Z,12.10
2018-07-02T00:55:23.654Z,12.00
2018-07-02T00:57:51.753Z,12.00
2018-07-02T01:00:19.844Z,12.00
2018-07-02T01:02:47.966Z,12.00
2018-07-02T01:05:16.068Z,12.00
2018-07-02T01:07:44.711Z,12.00
2018-07-02T01:10:12.986Z,11.90
2018-07-02T01:12:41.143Z,11.90
2018-07-02T01:17:37.136Z,11.90
2018-07-02T01:20:05.233Z,12.00
2018-07-02T01:22:33.364Z,12.00
2018-07-02T01:25:01.503Z,11.90
2018-07-02T01:27:33.909Z,12.00
2018-07-02T01:30:03.100Z,11.90
2018-07-02T01:32:31.274Z,11.90
2018-07-02T01:34:59.426Z,11.80
2018-07-02T01:39:55.489Z,11.80
2018-07-02T01:42:23.634Z,11.70
2018-07-02T01:44:51.879Z,11.70
2018-07-02T01:47:20.027Z,11.60
2018-07-02T01:49:48.133Z,11.60
2018-07-02T01:52:16.229Z,11.50
2018-07-02T01:54:44.405Z,11.50
2018-07-02T01:57:12.499Z,11.50
2018-07-02T01:59:40.637Z,11.40
2018-07-02T02:02:08.752Z,11.40
2018-07-02T02:04:36.894Z,11.30
2018-07-02T02:07:05.523Z,11.30
2018-07-02T02:09:33.674Z,11.30
2018-07-02T02:12:01.792Z,11.30
2018-07-02T02:14:29.934Z,11.30
2018-07-02T02:16:58.072Z,11.30
2018-07-02T02:19:26.178Z,13.50
2018-07-02T02:24:28.768Z,11.30
2018-07-02T02:26:56.906Z,11.30
2018-07-02T02:29:25.019Z,11.30
2018-07-02T02:31:53.151Z,11.30
2018-07-02T02:34:21.334Z,11.30
2018-07-02T02:36:49.530Z,11.20
2018-07-02T02:39:17.694Z,11.20
2018-07-02T02:41:45.880Z,11.20
2018-07-02T02:44:14.067Z,11.20
2018-07-02T02:46:42.185Z,11.20
2018-07-02T02:49:10.310Z,11.20
2018-07-02T02:51:38.422Z,11.20
2018-07-02T02:54:06.544Z,11.30
2018-07-02T02:56:34.666Z,11.30
2018-07-02T02:59:02.778Z,11.20
2018-07-02T03:01:30.928Z,11.30
2018-07-02T03:03:59.037Z,11.20
2018-07-02T03:06:27.103Z,11.20
2018-07-02T03:08:55.262Z,11.20
2018-07-02T03:11:23.615Z,11.20
2018-07-02T03:13:51.775Z,11.10
2018-07-02T03:16:19.914Z,11.20
2018-07-02T03:18:48.034Z,11.10
2018-07-02T03:21:16.156Z,11.10
2018-07-02T03:26:12.791Z,11.10
2018-07-02T03:28:41.001Z,11.10
2018-07-02T03:31:09.132Z,11.10
2018-07-02T03:33:37.236Z,11.00
2018-07-02T03:36:05.403Z,11.00
2018-07-02T03:38:33.552Z,11.00
2018-07-02T03:41:01.685Z,11.00
2018-07-02T03:45:57.723Z,10.90
2018-07-02T03:48:25.814Z,10.90
2018-07-02T03:50:53.905Z,10.90
2018-07-02T03:53:21.999Z,10.90
2018-07-02T03:55:50.185Z,10.90
2018-07-02T03:58:18.406Z,10.80
2018-07-02T04:00:46.515Z,10.90
2018-07-02T04:03:14.613Z,10.90
2018-07-02T04:05:42.724Z,10.90
2018-07-02T04:08:10.822Z,10.90
2018-07-02T04:10:38.935Z,10.90
2018-07-02T04:13:07.052Z,11.00
2018-07-02T04:15:35.147Z,11.00
2018-07-02T04:18:03.274Z,11.00
2018-07-02T04:20:31.394Z,11.00
2018-07-02T04:22:59.534Z,11.10
2018-07-02T04:25:27.620Z,11.10
2018-07-02T04:27:55.720Z,11.10
2018-07-02T04:30:23.807Z,11.20
2018-07-02T04:32:51.943Z,11.30
2018-07-02T04:35:20.071Z,11.30
2018-07-02T04:37:48.183Z,11.40
2018-07-02T04:40:16.290Z,11.40
2018-07-02T04:42:44.425Z,11.40
2018-07-02T04:45:12.578Z,11.50
2018-07-02T04:47:40.653Z,11.60
2018-07-02T04:50:08.767Z,11.60
2018-07-02T04:52:36.888Z,11.70
2018-07-02T04:55:04.987Z,11.80
2018-07-02T04:57:33.199Z,11.90
2018-07-02T05:00:01.326Z,12.00
2018-07-02T05:02:29.442Z,12.10
2018-07-02T05:07:25.392Z,12.40
2018-07-02T05:09:53.479Z,12.50
2018-07-02T05:12:21.663Z,12.60
2018-07-02T05:14:49.756Z,12.70
2018-07-02T05:17:17.974Z,12.70
2018-07-02T05:19:46.066Z,12.90
2018-07-02T05:22:14.157Z,13.00
2018-07-02T05:24:42.252Z,13.20
2018-07-02T05:27:10.384Z,13.20
2018-07-02T05:29:38.470Z,13.30
2018-07-02T05:32:06.558Z,13.40
2018-07-02T05:34:34.653Z,13.50
2018-07-02T05:37:03.015Z,13.60
2018-07-02T05:39:31.103Z,13.80
2018-07-02T05:41:59.176Z,14.00
2018-07-02T05:44:27.415Z,14.10
2018-07-02T05:46:55.497Z,14.30
2018-07-02T05:49:23.588Z,14.50
2018-07-02T05:51:52.118Z,14.70
2018-07-02T05:54:20.228Z,14.90
2018-07-02T05:56:48.325Z,15.20
2018-07-02T05:59:16.492Z,15.90
2018-07-02T06:01:44.563Z,16.60
2018-07-02T06:04:12.634Z,17.20
2018-07-02T06:06:40.735Z,17.50
2018-07-02T06:09:10.499Z,17.40
2018-07-02T06:11:39.211Z,17.30
2018-07-02T06:14:07.298Z,17.20
2018-07-02T06:16:35.397Z,17.00
2018-07-02T06:19:03.620Z,17.00
2018-07-02T06:21:31.699Z,17.00
2018-07-02T06:23:59.803Z,17.10
2018-07-02T06:26:27.864Z,17.10
2018-07-02T06:28:55.950Z,17.20
2018-07-02T06:31:24.062Z,17.20
2018-07-02T06:33:52.158Z,17.20
2018-07-02T06:36:20.419Z,17.20
2018-07-02T06:38:48.568Z,17.30
2018-07-02T06:41:16.628Z,17.40
2018-07-02T06:43:51.340Z,17.40
2018-07-02T06:46:19.407Z,17.40
2018-07-02T06:48:47.558Z,17.40
2018-07-02T06:51:15.647Z,17.40
2018-07-02T06:53:43.760Z,17.50
2018-07-02T06:56:11.839Z,17.60
2018-07-02T06:58:39.984Z,17.80
2018-07-02T07:01:08.045Z,17.90
2018-07-02T07:03:36.125Z,18.00
2018-07-02T07:06:04.193Z,18.10
2018-07-02T07:08:32.451Z,18.30
2018-07-02T07:11:00.550Z,18.30
2018-07-02T07:13:28.658Z,18.40
2018-07-02T07:15:56.768Z,18.50
2018-07-02T07:18:24.889Z,18.60
2018-07-02T07:20:52.977Z,18.70
2018-07-02T07:23:21.055Z,18.80
2018-07-02T07:25:49.160Z,18.80
2018-07-02T07:30:45.306Z,19.00
2018-07-02T07:35:41.383Z,19.10
2018-07-02T07:38:09.458Z,19.20
2018-07-02T07:40:37.547Z,19.30
2018-07-02T07:43:05.598Z,19.40
2018-07-02T07:45:33.711Z,19.50
2018-07-02T07:48:01.800Z,19.90
2018-07-02T07:50:29.995Z,20.50
2018-07-02T07:52:58.132Z,21.20
2018-07-02T07:55:26.262Z,22.00
2018-07-02T07:57:54.370Z,22.30
2018-07-02T08:00:22.465Z,22.90
2018-07-02T08:02:50.538Z,23.10
2018-07-02T08:05:18.647Z,22.80
2018-07-02T08:07:46.722Z,22.60
2018-07-02T08:10:14.876Z,22.90
2018-07-02T08:12:42.862Z,23.00
2018-07-02T08:15:10.926Z,22.90
2018-07-02T08:17:39.005Z,22.90
2018-07-02T08:20:07.323Z,22.70
2018-07-02T08:22:35.412Z,22.50
2018-07-02T08:25:03.482Z,22.10
2018-07-02T08:27:31.617Z,21.50
2018-07-02T08:29:59.731Z,21.30
2018-07-02T08:32:27.804Z,21.30
2018-07-02T08:34:55.981Z,21.20
2018-07-02T08:37:24.159Z,21.10
2018-07-02T08:39:52.323Z,20.90
2018-07-02T08:42:20.405Z,20.70
2018-07-02T08:44:48.509Z,20.60
2018-07-02T08:49:44.619Z,20.50
2018-07-02T08:52:12.709Z,20.60
2018-07-02T08:54:40.807Z,20.70
2018-07-02T08:57:08.904Z,20.70
2018-07-02T08:59:36.981Z,20.80
2018-07-02T09:02:05.124Z,20.70
2018-07-02T09:09:29.189Z,20.50
2018-07-02T09:11:57.323Z,20.70
2018-07-02T09:14:25.402Z,20.80
2018-07-02T09:16:53.522Z,20.90
2018-07-02T09:19:21.778Z,21.00
2018-07-02T09:21:49.870Z,21.20
2018-07-02T09:24:18.024Z,21.20
2018-07-02T09:26:46.141Z,21.30
2018-07-02T09:29:14.237Z,21.40
2018-07-02T09:31:42.318Z,21.40
2018-07-02T09:34:10.411Z,21.60
2018-07-02T09:36:38.583Z,21.80
2018-07-02T09:39:08.603Z,21.90
2018-07-02T09:41:36.680Z,22.00
2018-07-02T09:44:05.074Z,22.10
2018-07-02T09:46:33.194Z,22.20
2018-07-02T09:49:01.322Z,22.10
2018-07-02T09:51:29.802Z,22.10
2018-07-02T09:53:58.357Z,21.90
2018-07-02T09:56:26.456Z,21.70
2018-07-02T09:58:54.626Z,21.60
2018-07-02T10:01:22.888Z,21.60
2018-07-02T10:03:50.982Z,21.60
2018-07-02T10:06:19.322Z,21.60
2018-07-02T10:08:47.326Z,21.60
2018-07-02T10:11:15.456Z,21.60
2018-07-02T10:13:43.631Z,21.70
2018-07-02T10:16:11.730Z,21.70
2018-07-02T10:18:39.842Z,21.60
2018-07-02T10:21:08.051Z,21.70
2018-07-02T10:23:37.336Z,21.70
2018-07-02T10:26:04.319Z,21.60
2018-07-02T10:28:32.697Z,21.70
2018-07-02T10:31:01.030Z,22.00
2018-07-02T10:33:29.105Z,22.00
2018-07-02T10:35:57.275Z,21.80
2018-07-02T10:38:25.389Z,21.70
2018-07-02T10:43:21.449Z,21.70
2018-07-02T10:45:49.739Z,22.00
2018-07-02T10:48:18.105Z,22.20
2018-07-02T10:53:14.142Z,22.60
2018-07-02T10:55:42.343Z,22.90
2018-07-02T10:58:10.482Z,23.10
2018-07-02T11:00:38.597Z,23.20
2018-07-02T11:03:06.838Z,23.20
2018-07-02T11:05:34.926Z,23.30
2018-07-02T11:08:02.994Z,23.50
2018-07-02T11:10:31.171Z,23.70
2018-07-02T11:13:03.573Z,23.50
2018-07-02T11:15:31.945Z,23.20
2018-07-02T11:18:00.083Z,22.90
2018-07-02T11:20:28.166Z,22.80
2018-07-02T11:22:56.261Z,22.80
2018-07-02T11:25:24.408Z,22.70
2018-07-02T11:27:52.466Z,22.70
2018-07-02T11:30:20.558Z,22.70
2018-07-02T11:35:16.621Z,22.60
2018-07-02T11:37:45.543Z,22.50
2018-07-02T11:40:13.651Z,22.50
2018-07-02T11:42:41.761Z,22.60
2018-07-02T11:45:09.992Z,22.70
2018-07-02T11:47:38.123Z,22.80
2018-07-02T11:50:06.971Z,22.80
2018-07-02T11:52:35.127Z,23.00
2018-07-02T11:55:03.294Z,23.00
2018-07-02T11:57:31.392Z,23.00
2018-07-02T11:59:59.549Z,23.00
2018-07-02T12:02:27.717Z,23.10
2018-07-02T12:04:55.902Z,23.30
2018-07-02T12:07:24.074Z,23.50
2018-07-02T12:09:52.248Z,23.60
2018-07-02T12:12:20.364Z,23.70
2018-07-02T12:14:48.490Z,23.70
2018-07-02T12:17:16.625Z,23.70
2018-07-02T12:19:44.747Z,23.50
2018-07-02T12:22:12.914Z,23.20
2018-07-02T12:24:41.217Z,23.00
2018-07-02T12:27:09.370Z,22.80
2018-07-02T12:29:37.440Z,22.70
2018-07-02T12:32:05.608Z,22.50
2018-07-02T12:34:33.858Z,22.40
2018-07-02T12:37:02.015Z,22.40
2018-07-02T12:39:30.134Z,22.40
2018-07-02T12:41:58.237Z,22.40
2018-07-02T12:44:26.331Z,22.30
2018-07-02T12:46:54.437Z,22.30
2018-07-02T12:49:22.606Z,22.40
2018-07-02T12:51:50.745Z,22.50
2018-07-02T12:54:18.846Z,22.70
2018-07-02T12:59:14.857Z,23.20
2018-07-02T13:01:42.926Z,23.20
2018-07-02T13:04:10.987Z,23.20
2018-07-02T13:06:39.152Z,23.20
2018-07-02T13:09:09.542Z,23.20
2018-07-02T13:11:37.699Z,23.10
2018-07-02T13:14:06.503Z,23.10
2018-07-02T13:16:34.670Z,23.00
2018-07-02T13:19:02.849Z,23.00
2018-07-02T13:21:31.006Z,22.90
2018-07-02T13:23:59.427Z,22.90
2018-07-02T13:26:27.454Z,22.90
2018-07-02T13:28:55.677Z,23.00
2018-07-02T13:31:23.802Z,23.10
2018-07-02T13:33:52.118Z,23.20
2018-07-02T13:36:20.688Z,23.30
2018-07-02T13:38:49.271Z,23.50
2018-07-02T13:41:17.491Z,23.50
2018-07-02T13:43:45.629Z,23.40
2018-07-02T13:46:13.784Z,23.40
2018-07-02T13:48:42.080Z,23.40
2018-07-02T13:51:10.246Z,23.40
2018-07-02T13:53:38.381Z,23.60
2018-07-02T13:56:06.661Z,23.60
2018-07-02T13:58:35.556Z,23.50
2018-07-02T14:01:03.693Z,23.60
2018-07-02T14:03:31.798Z,23.80
2018-07-02T14:06:00.044Z,23.70
2018-07-02T14:08:28.145Z,23.60
2018-07-02T14:10:56.323Z,23.40
2018-07-02T14:13:24.623Z,23.30
2018-07-02T14:15:52.984Z,23.30
2018-07-02T14:18:21.369Z,23.30
2018-07-02T14:20:49.800Z,23.40
2018-07-02T14:23:18.030Z,23.40
2018-07-02T14:25:46.117Z,23.50
2018-07-02T14:28:14.267Z,23.60
2018-07-02T14:30:43.204Z,23.60
2018-07-02T14:33:11.326Z,23.60
2018-07-02T14:35:39.560Z,23.60
2018-07-02T14:38:07.702Z,23.70
2018-07-02T14:40:35.838Z,23.90
2018-07-02T14:43:03.956Z,23.90
2018-07-02T14:45:32.331Z,23.80
2018-07-02T14:48:07.219Z,23.70
2018-07-02T14:50:35.386Z,23.90
2018-07-02T14:55:31.457Z,24.00
2018-07-02T14:57:59.676Z,24.00
2018-07-02T15:00:27.800Z,24.00
2018-07-02T15:02:55.902Z,23.90
2018-07-02T15:05:24.019Z,23.60
2018-07-02T15:07:52.133Z,23.40
2018-07-02T15:10:20.265Z,23.20
2018-07-02T15:12:48.414Z,23.20
2018-07-02T15:15:16.510Z,23.20
2018-07-02T15:17:44.703Z,23.20
2018-07-02T15:20:12.853Z,23.30
2018-07-02T15:22:40.946Z,23.50
2018-07-02T15:25:09.068Z,23.50
2018-07-02T15:27:37.134Z,23.50
2018-07-02T15:30:05.354Z,23.50
2018-07-02T15:32:33.476Z,23.60
2018-07-02T15:35:01.694Z,23.70
2018-07-02T15:37:29.789Z,23.70
2018-07-02T15:42:25.875Z,24.00
2018-07-02T15:59:09.745Z,23.70
2018-07-02T16:01:37.850Z,23.50
2018-07-02T16:04:05.888Z,23.30
2018-07-02T16:06:34.366Z,23.30
2018-07-02T16:09:02.488Z,23.30
2018-07-02T16:11:30.653Z,23.40
2018-07-02T16:16:26.746Z,23.60
2018-07-02T16:18:54.839Z,23.70
2018-07-02T16:21:22.962Z,23.90
2018-07-02T16:23:51.036Z,23.90
2018-07-02T16:26:19.108Z,24.00
2018-07-02T16:28:47.176Z,23.90
2018-07-02T16:31:15.403Z,24.00
2018-07-02T16:33:43.491Z,24.00
2018-07-02T16:36:11.594Z,24.10
2018-07-02T16:38:39.720Z,24.00
2018-07-02T16:41:07.871Z,24.00
2018-07-02T16:43:37.029Z,23.90
2018-07-02T16:46:05.202Z,23.80
2018-07-02T16:48:33.341Z,23.70
2018-07-02T16:51:01.501Z,23.60
2018-07-02T16:53:29.587Z,23.50
2018-07-02T16:55:57.917Z,23.40
2018-07-02T16:58:25.978Z,23.30
2018-07-02T17:00:54.174Z,23.20
2018-07-02T17:03:22.313Z,23.20
2018-07-02T17:05:50.465Z,23.20
2018-07-02T17:08:18.632Z,23.20
2018-07-02T17:10:46.732Z,23.20
2018-07-02T17:13:14.906Z,23.20
2018-07-02T17:15:43.083Z,23.20
2018-07-02T17:18:11.161Z,23.30
2018-07-02T17:20:39.303Z,23.20
2018-07-02T17:23:07.495Z,23.20
2018-07-02T17:25:35.579Z,23.10
2018-07-02T17:28:03.719Z,23.00
2018-07-02T17:30:31.789Z,22.90
2018-07-02T17:32:59.882Z,22.90
2018-07-02T17:35:27.996Z,22.80
2018-07-02T17:37:56.105Z,22.80
2018-07-02T17:40:24.207Z,22.80
2018-07-02T17:42:52.324Z,22.80
2018-07-02T17:45:20.593Z,22.80
2018-07-02T17:47:48.723Z,22.80
2018-07-02T17:50:16.842Z,22.80
2018-07-02T17:52:44.970Z,22.70
2018-07-02T17:55:13.087Z,22.70
2018-07-02T17:57:41.389Z,22.70
2018-07-02T18:00:09.518Z,22.60
2018-07-02T18:02:37.593Z,22.50
2018-07-02T18:05:05.746Z,22.50
2018-07-02T18:07:33.991Z,22.40
2018-07-02T18:10:02.107Z,22.40
2018-07-02T18:12:30.300Z,22.40
2018-07-02T18:14:58.456Z,22.30
2018-07-02T18:17:26.613Z,22.30
2018-07-02T18:19:54.703Z,22.20
2018-07-02T18:22:22.817Z,22.20
2018-07-02T18:24:50.937Z,22.10
2018-07-02T18:27:19.038Z,22.10
2018-07-02T18:29:47.119Z,22.10
2018-07-02T18:32:15.220Z,22.20
2018-07-02T18:34:43.353Z,22.10
2018-07-02T18:37:11.481Z,22.00
2018-07-02T18:39:39.702Z,21.90
2018-07-02T18:42:07.971Z,21.80
2018-07-02T18:44:36.087Z,21.70
2018-07-02T18:47:04.256Z,21.70
2018-07-02T18:49:32.430Z,21.60
2018-07-02T18:52:00.500Z,21.50
2018-07-02T18:54:28.668Z,21.50
2018-07-02T18:56:56.822Z,21.40
2018-07-02T18:59:25.036Z,21.30
2018-07-02T19:01:53.149Z,21.30
2018-07-02T19:04:21.238Z,21.20
2018-07-02T19:06:49.410Z,21.20
2018-07-02T19:09:17.487Z,21.10
2018-07-02T19:11:45.688Z,21.00
2018-07-02T19:14:13.754Z,21.00
2018-07-02T19:16:41.913Z,21.00
2018-07-02T19:19:10.058Z,20.90
2018-07-02T19:21:38.178Z,20.90
2018-07-02T19:24:06.294Z,20.80
2018-07-02T19:26:34.450Z,20.80
2018-07-02T19:29:02.625Z,20.70
2018-07-02T19:31:30.740Z,20.70
2018-07-02T19:33:58.887Z,20.60
2018-07-02T19:36:26.963Z,20.50
2018-07-02T19:38:56.120Z,20.40
2018-07-02T19:41:24.213Z,20.30
2018-07-02T19:43:52.408Z,20.20
2018-07-02T19:46:20.764Z,20.20
2018-07-02T19:48:48.880Z,20.20
2018-07-02T19:51:17.012Z,20.20
2018-07-02T19:53:45.104Z,20.10
2018-07-02T19:56:13.321Z,20.10
2018-07-02T19:58:41.520Z,20.00
2018-07-02T20:01:09.673Z,19.90
2018-07-02T20:03:37.763Z,19.80
2018-07-02T20:06:05.891Z,19.70
2018-07-02T20:08:33.999Z,19.70
2018-07-02T20:11:02.098Z,19.70
2018-07-02T20:13:30.226Z,19.70
2018-07-02T20:18:26.260Z,19.60
2018-07-02T20:20:54.334Z,19.60
2018-07-02T20:23:22.440Z,19.60
2018-07-02T20:25:50.573Z,19.60
2018-07-02T20:30:46.679Z,19.50
2018-07-02T20:33:14.750Z,19.50
2018-07-02T20:35:42.942Z,19.40
2018-07-02T20:38:11.134Z,19.30
2018-07-02T20:40:39.338Z,19.20
2018-07-02T20:43:07.442Z,19.10
2018-07-02T20:45:35.616Z,19.00
2018-07-02T20:48:03.755Z,18.90
2018-07-02T20:50:31.857Z,18.90
2018-07-02T20:52:59.931Z,18.80
2018-07-02T20:55:28.046Z,18.70
2018-07-02T20:57:56.245Z,18.60
2018-07-02T21:00:26.772Z,18.50
2018-07-02T21:02:54.885Z,18.50
2018-07-02T21:05:22.957Z,18.40
2018-07-02T21:07:51.028Z,18.40
2018-07-02T21:10:19.122Z,18.30
2018-07-02T21:12:47.165Z,18.30
2018-07-02T21:15:15.334Z,18.30
2018-07-02T21:17:43.406Z,18.30
2018-07-02T21:20:11.479Z,18.30
2018-07-02T21:22:39.549Z,18.20
2018-07-02T21:25:07.633Z,18.20
2018-07-02T21:27:35.801Z,18.20
2018-07-02T21:30:04.583Z,18.10
2018-07-02T21:32:32.681Z,18.00
2018-07-02T21:35:00.814Z,18.00
2018-07-02T21:37:28.883Z,17.90
2018-07-02T21:39:56.941Z,17.80
2018-07-02T21:42:25.044Z,17.80
2018-07-02T21:44:53.203Z,17.70
2018-07-02T21:47:21.568Z,17.60
2018-07-02T21:49:49.644Z,17.50
2018-07-02T21:52:17.749Z,17.60
2018-07-02T21:54:45.983Z,17.50
2018-07-02T21:57:14.082Z,17.50
2018-07-02T21:59:42.173Z,17.40
2018-07-02T22:02:10.338Z,17.50
2018-07-02T22:04:38.426Z,17.40
2018-07-02T22:07:06.540Z,17.40
2018-07-02T22:09:34.681Z,17.30
2018-07-02T22:12:02.794Z,17.30
2018-07-02T22:14:30.867Z,17.20
2018-07-02T22:16:59.170Z,17.10
2018-07-02T22:19:27.312Z,16.20
2018-07-02T22:21:55.627Z,17.10
2018-07-02T22:24:23.824Z,17.10
2018-07-02T22:26:51.915Z,17.10
2018-07-02T22:29:20.029Z,17.00
2018-07-02T22:31:48.102Z,17.00
2018-07-02T22:34:16.226Z,16.90
2018-07-02T22:36:44.269Z,16.80
2018-07-02T22:39:12.599Z,16.80
2018-07-02T22:41:40.733Z,16.80
2018-07-02T22:44:09.578Z,16.80
2018-07-02T22:46:37.673Z,16.80
2018-07-02T22:49:06.321Z,16.70
2018-07-02T22:51:34.597Z,16.70
2018-07-02T22:54:02.743Z,16.70
2018-07-02T22:56:30.823Z,16.70
2018-07-02T22:58:58.947Z,16.60
2018-07-02T23:04:00.795Z,16.60
2018-07-02T23:06:28.878Z,16.60
2018-07-02T23:08:57.027Z,16.60
2018-07-02T23:11:25.128Z,16.50
2018-07-02T23:13:53.251Z,16.40
2018-07-02T23:16:21.383Z,16.40
2018-07-02T23:18:49.564Z,16.30
2018-07-02T23:21:17.692Z,16.30
2018-07-02T23:26:13.982Z,16.30
2018-07-02T23:28:42.114Z,16.30
2018-07-02T23:31:10.226Z,16.30
2018-07-02T23:33:38.347Z,16.20
2018-07-02T23:36:06.458Z,16.30
2018-07-02T23:38:34.542Z,16.20
2018-07-02T23:41:02.680Z,16.10
2018-07-02T23:43:30.766Z,16.10
2018-07-02T23:45:58.858Z,16.10
2018-07-02T23:48:26.950Z,16.00
2018-07-02T23:50:55.055Z,15.90
2018-07-02T23:53:23.179Z,15.90
2018-07-02T23:55:51.299Z,15.80
2018-07-02T23:58:19.374Z,15.80
